Terminal Aerodrome Forecast
Issued by NWS

Home | Current Version | Previous Version | Text Only | Print | Product List | Glossary Off
Versions: 1 2 3 4 5 6 7 8 9 10 11 12 13 14 15

000
FTUS43 KMPX 311700
TAFRWF
TAF
KRWF 311723Z 3118/0118 20015G22KT P6SM VCTS SCT035CB BKN110
     FM312100 22012KT P6SM SCT050 BKN080
     FM312300 24008KT P6SM VCTS SCT040 BKN070CB
     FM010300 28006KT P6SM VCSH SCT050 BKN100
     FM010600 30004KT 4SM BR SCT015=

USA.gov is the U.S. government's official web portal to all federal, state and local government web resources and services.